sensor_id;sensor_type;location;lat;lon;timestamp;P1;durP1;ratioP1;P2;durP2;ratioP2
72899;SDS011;61043;52.036;5.566;2022-09-20T00:01:39;8.57;;;1.75;;
72899;SDS011;61043;52.036;5.566;2022-09-20T00:04:06;8.73;;;1.90;;
72899;SDS011;61043;52.036;5.566;2022-09-20T00:06:33;4.35;;;1.65;;
72899;SDS011;61043;52.036;5.566;2022-09-20T00:09:00;4.90;;;1.70;;
72899;SDS011;61043;52.036;5.566;2022-09-20T00:11:29;4.22;;;1.80;;
72899;SDS011;61043;52.036;5.566;2022-09-20T00:13:58;6.50;;;2.15;;
72899;SDS011;61043;52.036;5.566;2022-09-20T00:16:28;5.65;;;1.98;;
72899;SDS011;61043;52.036;5.566;2022-09-20T00:18:57;5.03;;;1.67;;
72899;SDS011;61043;52.036;5.566;2022-09-20T00:21:26;3.97;;;1.70;;
72899;SDS011;61043;52.036;5.566;2022-09-20T00:23:54;6.47;;;1.90;;
72899;SDS011;61043;52.036;5.566;2022-09-20T00:26:25;5.18;;;1.65;;
72899;SDS011;61043;52.036;5.566;2022-09-20T00:28:52;5.40;;;1.80;;
72899;SDS011;61043;52.036;5.566;2022-09-20T00:31:20;5.97;;;1.80;;
72899;SDS011;61043;52.036;5.566;2022-09-20T00:33:48;7.88;;;2.10;;
72899;SDS011;61043;52.036;5.566;2022-09-20T00:36:33;5.97;;;1.60;;
72899;SDS011;61043;52.036;5.566;2022-09-20T00:39:00;7.55;;;2.13;;
72899;SDS011;61043;52.036;5.566;2022-09-20T00:41:28;3.25;;;1.70;;
72899;SDS011;61043;52.036;5.566;2022-09-20T00:43:56;6.43;;;2.03;;
72899;SDS011;61043;52.036;5.566;2022-09-20T00:46:28;6.63;;;1.70;;
72899;SDS011;61043;52.036;5.566;2022-09-20T00:49:09;5.20;;;1.75;;
72899;SDS011;61043;52.036;5.566;2022-09-20T00:51:40;6.75;;;1.98;;
72899;SDS011;61043;52.036;5.566;2022-09-20T00:54:11;5.63;;;1.95;;
72899;SDS011;61043;52.036;5.566;2022-09-20T00:56:45;5.10;;;1.70;;
72899;SDS011;61043;52.036;5.566;2022-09-20T01:01:51;7.85;;;1.58;;
72899;SDS011;61043;52.036;5.566;2022-09-20T01:04:23;6.18;;;2.00;;
72899;SDS011;61043;52.036;5.566;2022-09-20T01:06:53;8.45;;;1.80;;
72899;SDS011;61043;52.036;5.566;2022-09-20T01:09:22;5.70;;;1.55;;
72899;SDS011;61043;52.036;5.566;2022-09-20T01:11:49;5.00;;;1.63;;
72899;SDS011;61043;52.036;5.566;2022-09-20T01:14:17;6.95;;;1.70;;
72899;SDS011;61043;52.036;5.566;2022-09-20T01:16:44;6.97;;;1.70;;
72899;SDS011;61043;52.036;5.566;2022-09-20T01:19:18;5.25;;;1.70;;
72899;SDS011;61043;52.036;5.566;2022-09-20T01:21:58;4.68;;;1.65;;
72899;SDS011;61043;52.036;5.566;2022-09-20T01:27:12;5.28;;;1.73;;
72899;SDS011;61043;52.036;5.566;2022-09-20T01:30:04;5.85;;;1.60;;
72899;SDS011;61043;52.036;5.566;2022-09-20T01:35:12;7.07;;;1.50;;
72899;SDS011;61043;52.036;5.566;2022-09-20T01:40:45;2.78;;;1.40;;
72899;SDS011;61043;52.036;5.566;2022-09-20T01:43:42;4.85;;;1.85;;
72899;SDS011;61043;52.036;5.566;2022-09-20T01:48:44;6.30;;;1.40;;
72899;SDS011;61043;52.036;5.566;2022-09-20T02:13:33;7.95;;;1.50;;
72899;SDS011;61043;52.036;5.566;2022-09-20T02:27:56;5.47;;;1.40;;
72899;SDS011;61043;52.036;5.566;2022-09-20T02:37:12;3.63;;;1.33;;
72899;SDS011;61043;52.036;5.566;2022-09-20T02:39:28;3.72;;;1.33;;
72899;SDS011;61043;52.036;5.566;2022-09-20T02:47:56;3.08;;;1.50;;
72899;SDS011;61043;52.036;5.566;2022-09-20T02:50:34;8.45;;;1.67;;
72899;SDS011;61043;52.036;5.566;2022-09-20T03:04:43;7.25;;;1.95;;
72899;SDS011;61043;52.036;5.566;2022-09-20T03:12:56;5.97;;;1.50;;
72899;SDS011;61043;52.036;5.566;2022-09-20T03:15:29;4.43;;;1.60;;
72899;SDS011;61043;52.036;5.566;2022-09-20T03:21:19;4.22;;;1.67;;
72899;SDS011;61043;52.036;5.566;2022-09-20T03:24:08;7.57;;;2.10;;
72899;SDS011;61043;52.036;5.566;2022-09-20T03:43:37;7.57;;;1.60;;
72899;SDS011;61043;52.036;5.566;2022-09-20T03:55:07;4.55;;;1.25;;
72899;SDS011;61043;52.036;5.566;2022-09-20T04:03:22;6.28;;;1.67;;
72899;SDS011;61043;52.036;5.566;2022-09-20T04:12:04;5.35;;;1.70;;
72899;SDS011;61043;52.036;5.566;2022-09-20T04:14:52;3.50;;;1.50;;
72899;SDS011;61043;52.036;5.566;2022-09-20T04:20:01;4.78;;;1.48;;
72899;SDS011;61043;52.036;5.566;2022-09-20T04:22:32;4.60;;;1.67;;
72899;SDS011;61043;52.036;5.566;2022-09-20T04:25:03;3.15;;;1.60;;
72899;SDS011;61043;52.036;5.566;2022-09-20T04:27:39;4.07;;;1.40;;
72899;SDS011;61043;52.036;5.566;2022-09-20T04:30:15;5.80;;;1.65;;
72899;SDS011;61043;52.036;5.566;2022-09-20T04:38:30;6.90;;;1.73;;
72899;SDS011;61043;52.036;5.566;2022-09-20T04:43:44;4.57;;;1.48;;
72899;SDS011;61043;52.036;5.566;2022-09-20T04:58:13;5.47;;;1.85;;
72899;SDS011;61043;52.036;5.566;2022-09-20T05:09:46;5.07;;;1.83;;
72899;SDS011;61043;52.036;5.566;2022-09-20T05:15:34;6.78;;;2.70;;
72899;SDS011;61043;52.036;5.566;2022-09-20T05:18:09;5.32;;;1.90;;
72899;SDS011;61043;52.036;5.566;2022-09-20T05:29:24;5.22;;;2.08;;
72899;SDS011;61043;52.036;5.566;2022-09-20T05:34:59;5.43;;;1.70;;
72899;SDS011;61043;52.036;5.566;2022-09-20T05:40:34;6.53;;;2.20;;
72899;SDS011;61043;52.036;5.566;2022-09-20T05:43:32;6.57;;;2.13;;
72899;SDS011;61043;52.036;5.566;2022-09-20T05:46:16;7.82;;;2.10;;
72899;SDS011;61043;52.036;5.566;2022-09-20T05:49:03;7.97;;;2.63;;
72899;SDS011;61043;52.036;5.566;2022-09-20T05:54:46;12.13;;;3.03;;
72899;SDS011;61043;52.036;5.566;2022-09-20T05:57:41;8.48;;;2.38;;
72899;SDS011;61043;52.036;5.566;2022-09-20T06:00:31;7.57;;;2.53;;
72899;SDS011;61043;52.036;5.566;2022-09-20T06:03:20;5.47;;;2.08;;
72899;SDS011;61043;52.036;5.566;2022-09-20T06:12:14;5.80;;;2.85;;
72899;SDS011;61043;52.036;5.566;2022-09-20T06:18:15;6.30;;;2.20;;
72899;SDS011;61043;52.036;5.566;2022-09-20T06:20:48;4.25;;;1.92;;
72899;SDS011;61043;52.036;5.566;2022-09-20T06:23:15;6.57;;;2.20;;
72899;SDS011;61043;52.036;5.566;2022-09-20T06:28:27;4.53;;;2.03;;
72899;SDS011;61043;52.036;5.566;2022-09-20T06:30:57;6.57;;;2.33;;
72899;SDS011;61043;52.036;5.566;2022-09-20T06:33:24;5.30;;;2.20;;
72899;SDS011;61043;52.036;5.566;2022-09-20T06:35:54;4.72;;;2.38;;
72899;SDS011;61043;52.036;5.566;2022-09-20T06:42:06;6.05;;;2.08;;
72899;SDS011;61043;52.036;5.566;2022-09-20T06:44:35;6.18;;;2.13;;
72899;SDS011;61043;52.036;5.566;2022-09-20T06:47:08;5.10;;;2.33;;
72899;SDS011;61043;52.036;5.566;2022-09-20T06:49:35;6.13;;;2.10;;
72899;SDS011;61043;52.036;5.566;2022-09-20T06:52:05;6.30;;;2.30;;
72899;SDS011;61043;52.036;5.566;2022-09-20T06:54:32;6.18;;;2.15;;
72899;SDS011;61043;52.036;5.566;2022-09-20T06:57:01;4.68;;;2.28;;
72899;SDS011;61043;52.036;5.566;2022-09-20T06:59:29;7.68;;;2.75;;
72899;SDS011;61043;52.036;5.566;2022-09-20T07:01:57;7.18;;;2.55;;
72899;SDS011;61043;52.036;5.566;2022-09-20T07:04:23;4.63;;;2.60;;
72899;SDS011;61043;52.036;5.566;2022-09-20T07:06:58;5.75;;;2.33;;
72899;SDS011;61043;52.036;5.566;2022-09-20T07:09:34;6.43;;;2.40;;
72899;SDS011;61043;52.036;5.566;2022-09-20T07:12:02;5.97;;;2.60;;
72899;SDS011;61043;52.036;5.566;2022-09-20T07:14:29;7.68;;;2.47;;
72899;SDS011;61043;52.036;5.566;2022-09-20T07:16:56;11.77;;;3.40;;
72899;SDS011;61043;52.036;5.566;2022-09-20T07:19:22;11.52;;;3.15;;
72899;SDS011;61043;52.036;5.566;2022-09-20T07:21:51;11.15;;;2.83;;
72899;SDS011;61043;52.036;5.566;2022-09-20T07:24:19;6.72;;;2.35;;
72899;SDS011;61043;52.036;5.566;2022-09-20T07:26:59;8.13;;;2.83;;
72899;SDS011;61043;52.036;5.566;2022-09-20T07:29:28;7.70;;;2.70;;
72899;SDS011;61043;52.036;5.566;2022-09-20T07:31:55;9.93;;;2.70;;
72899;SDS011;61043;52.036;5.566;2022-09-20T07:34:22;6.30;;;2.60;;
72899;SDS011;61043;52.036;5.566;2022-09-20T07:36:49;6.78;;;2.50;;
72899;SDS011;61043;52.036;5.566;2022-09-20T07:39:16;8.25;;;2.42;;
72899;SDS011;61043;52.036;5.566;2022-09-20T07:41:43;7.70;;;2.83;;
72899;SDS011;61043;52.036;5.566;2022-09-20T07:44:13;6.28;;;3.08;;
72899;SDS011;61043;52.036;5.566;2022-09-20T07:46:47;9.32;;;2.53;;
72899;SDS011;61043;52.036;5.566;2022-09-20T07:49:14;7.57;;;2.28;;
72899;SDS011;61043;52.036;5.566;2022-09-20T07:51:41;5.80;;;2.40;;
72899;SDS011;61043;52.036;5.566;2022-09-20T07:54:07;6.35;;;2.00;;
72899;SDS011;61043;52.036;5.566;2022-09-20T07:56:34;6.45;;;2.20;;
72899;SDS011;61043;52.036;5.566;2022-09-20T07:59:01;4.38;;;2.28;;
72899;SDS011;61043;52.036;5.566;2022-09-20T08:01:28;7.88;;;2.03;;
72899;SDS011;61043;52.036;5.566;2022-09-20T08:03:55;6.70;;;1.58;;
72899;SDS011;61043;52.036;5.566;2022-09-20T08:06:22;4.95;;;1.73;;
72899;SDS011;61043;52.036;5.566;2022-09-20T08:08:49;5.75;;;2.30;;
72899;SDS011;61043;52.036;5.566;2022-09-20T08:11:20;6.30;;;2.28;;
72899;SDS011;61043;52.036;5.566;2022-09-20T08:13:53;6.28;;;1.70;;
72899;SDS011;61043;52.036;5.566;2022-09-20T08:16:40;9.68;;;2.67;;
72899;SDS011;61043;52.036;5.566;2022-09-20T08:19:19;6.85;;;3.10;;
72899;SDS011;61043;52.036;5.566;2022-09-20T08:21:47;4.65;;;1.67;;
72899;SDS011;61043;52.036;5.566;2022-09-20T08:24:15;8.82;;;2.38;;
72899;SDS011;61043;52.036;5.566;2022-09-20T08:26:42;5.05;;;1.80;;
72899;SDS011;61043;52.036;5.566;2022-09-20T08:29:09;5.50;;;1.77;;
72899;SDS011;61043;52.036;5.566;2022-09-20T08:31:37;3.88;;;1.42;;
72899;SDS011;61043;52.036;5.566;2022-09-20T08:36:37;5.18;;;1.70;;
72899;SDS011;61043;52.036;5.566;2022-09-20T08:39:12;4.35;;;1.02;;
72899;SDS011;61043;52.036;5.566;2022-09-20T08:47:26;4.93;;;1.98;;
72899;SDS011;61043;52.036;5.566;2022-09-20T08:50:02;4.45;;;1.40;;
72899;SDS011;61043;52.036;5.566;2022-09-20T08:52:36;4.38;;;1.70;;
72899;SDS011;61043;52.036;5.566;2022-09-20T08:55:39;4.25;;;1.45;;
72899;SDS011;61043;52.036;5.566;2022-09-20T08:58:02;7.20;;;1.63;;
72899;SDS011;61043;52.036;5.566;2022-09-20T09:00:34;5.75;;;1.90;;
72899;SDS011;61043;52.036;5.566;2022-09-20T09:03:06;6.47;;;2.30;;
72899;SDS011;61043;52.036;5.566;2022-09-20T09:05:42;4.93;;;1.90;;
72899;SDS011;61043;52.036;5.566;2022-09-20T09:08:11;7.07;;;1.98;;
72899;SDS011;61043;52.036;5.566;2022-09-20T09:10:45;4.55;;;1.83;;
72899;SDS011;61043;52.036;5.566;2022-09-20T09:13:20;5.93;;;1.90;;
72899;SDS011;61043;52.036;5.566;2022-09-20T09:15:55;6.97;;;2.10;;
72899;SDS011;61043;52.036;5.566;2022-09-20T09:18:30;3.88;;;2.00;;
72899;SDS011;61043;52.036;5.566;2022-09-20T09:21:01;6.97;;;2.10;;
72899;SDS011;61043;52.036;5.566;2022-09-20T09:23:31;4.65;;;1.80;;
72899;SDS011;61043;52.036;5.566;2022-09-20T09:26:16;5.07;;;1.80;;
72899;SDS011;61043;52.036;5.566;2022-09-20T09:28:46;6.13;;;1.92;;
72899;SDS011;61043;52.036;5.566;2022-09-20T09:31:40;5.60;;;1.98;;
72899;SDS011;61043;52.036;5.566;2022-09-20T09:36:56;5.22;;;1.75;;
72899;SDS011;61043;52.036;5.566;2022-09-20T09:39:27;4.88;;;1.42;;
72899;SDS011;61043;52.036;5.566;2022-09-20T09:41:56;6.43;;;1.80;;
72899;SDS011;61043;52.036;5.566;2022-09-20T09:44:27;4.30;;;1.52;;
72899;SDS011;61043;52.036;5.566;2022-09-20T09:46:57;5.55;;;1.75;;
72899;SDS011;61043;52.036;5.566;2022-09-20T09:49:26;7.85;;;1.48;;
72899;SDS011;61043;52.036;5.566;2022-09-20T09:54:38;3.35;;;1.52;;
72899;SDS011;61043;52.036;5.566;2022-09-20T10:00:00;4.57;;;1.42;;
72899;SDS011;61043;52.036;5.566;2022-09-20T10:08:27;4.47;;;1.40;;
72899;SDS011;61043;52.036;5.566;2022-09-20T10:11:08;6.28;;;1.70;;
72899;SDS011;61043;52.036;5.566;2022-09-20T10:16:58;5.60;;;2.00;;
72899;SDS011;61043;52.036;5.566;2022-09-20T10:19:44;3.90;;;1.40;;
72899;SDS011;61043;52.036;5.566;2022-09-20T10:28:20;3.03;;;1.33;;
72899;SDS011;61043;52.036;5.566;2022-09-20T10:31:24;2.83;;;1.40;;
72899;SDS011;61043;52.036;5.566;2022-09-20T10:45:09;1.55;;;0.95;;
72899;SDS011;61043;52.036;5.566;2022-09-20T10:48:04;4.07;;;1.02;;
72899;SDS011;61043;52.036;5.566;2022-09-20T10:50:50;7.35;;;1.50;;
72899;SDS011;61043;52.036;5.566;2022-09-20T10:56:06;4.65;;;1.70;;
72899;SDS011;61043;52.036;5.566;2022-09-20T11:07:48;5.43;;;1.30;;
72899;SDS011;61043;52.036;5.566;2022-09-20T11:10:20;2.63;;;0.85;;
72899;SDS011;61043;52.036;5.566;2022-09-20T11:15:25;3.33;;;1.08;;
72899;SDS011;61043;52.036;5.566;2022-09-20T11:23:35;8.05;;;1.30;;
72899;SDS011;61043;52.036;5.566;2022-09-20T11:31:54;5.13;;;1.30;;
72899;SDS011;61043;52.036;5.566;2022-09-20T11:34:30;4.35;;;0.93;;
72899;SDS011;61043;52.036;5.566;2022-09-20T11:37:01;5.25;;;1.10;;
72899;SDS011;61043;52.036;5.566;2022-09-20T11:42:20;4.35;;;0.80;;
72899;SDS011;61043;52.036;5.566;2022-09-20T11:44:49;5.93;;;1.17;;
72899;SDS011;61043;52.036;5.566;2022-09-20T11:47:19;6.13;;;1.00;;
72899;SDS011;61043;52.036;5.566;2022-09-20T11:53:05;6.67;;;1.30;;
72899;SDS011;61043;52.036;5.566;2022-09-20T11:56:03;3.67;;;1.00;;
72899;SDS011;61043;52.036;5.566;2022-09-20T11:59:19;5.25;;;1.20;;
72899;SDS011;61043;52.036;5.566;2022-09-20T12:01:35;4.57;;;1.00;;
72899;SDS011;61043;52.036;5.566;2022-09-20T12:04:06;3.63;;;0.98;;
72899;SDS011;61043;52.036;5.566;2022-09-20T12:07:05;3.47;;;1.20;;
72899;SDS011;61043;52.036;5.566;2022-09-20T12:09:54;4.82;;;1.23;;
72899;SDS011;61043;52.036;5.566;2022-09-20T12:12:38;2.70;;;1.10;;
72899;SDS011;61043;52.036;5.566;2022-09-20T12:15:22;5.93;;;1.17;;
72899;SDS011;61043;52.036;5.566;2022-09-20T12:26:03;5.70;;;1.30;;
72899;SDS011;61043;52.036;5.566;2022-09-20T12:28:41;6.20;;;1.30;;
72899;SDS011;61043;52.036;5.566;2022-09-20T12:39:13;3.60;;;1.10;;
72899;SDS011;61043;52.036;5.566;2022-09-20T12:57:56;5.05;;;1.33;;
72899;SDS011;61043;52.036;5.566;2022-09-20T13:00:28;6.07;;;0.93;;
72899;SDS011;61043;52.036;5.566;2022-09-20T13:03:22;2.42;;;0.85;;
72899;SDS011;61043;52.036;5.566;2022-09-20T13:16:44;5.57;;;2.15;;
72899;SDS011;61043;52.036;5.566;2022-09-20T13:19:16;4.28;;;0.90;;
72899;SDS011;61043;52.036;5.566;2022-09-20T13:24:21;4.65;;;0.88;;
72899;SDS011;61043;52.036;5.566;2022-09-20T13:26:53;4.18;;;1.10;;
72899;SDS011;61043;52.036;5.566;2022-09-20T13:29:25;5.05;;;1.10;;
72899;SDS011;61043;52.036;5.566;2022-09-20T13:35:20;3.90;;;1.27;;
72899;SDS011;61043;52.036;5.566;2022-09-20T13:37:52;3.90;;;1.15;;
72899;SDS011;61043;52.036;5.566;2022-09-20T13:40:24;2.67;;;0.90;;
72899;SDS011;61043;52.036;5.566;2022-09-20T13:43:02;5.93;;;1.20;;
72899;SDS011;61043;52.036;5.566;2022-09-20T13:45:50;4.20;;;1.00;;
72899;SDS011;61043;52.036;5.566;2022-09-20T13:48:28;4.72;;;1.00;;
72899;SDS011;61043;52.036;5.566;2022-09-20T13:50:55;3.20;;;1.00;;
72899;SDS011;61043;52.036;5.566;2022-09-20T13:53:25;6.43;;;1.10;;
72899;SDS011;61043;52.036;5.566;2022-09-20T13:56:17;4.80;;;0.90;;
72899;SDS011;61043;52.036;5.566;2022-09-20T13:58:45;4.30;;;1.30;;
72899;SDS011;61043;52.036;5.566;2022-09-20T14:03:56;6.55;;;1.10;;
72899;SDS011;61043;52.036;5.566;2022-09-20T14:06:30;4.82;;;1.10;;
72899;SDS011;61043;52.036;5.566;2022-09-20T14:08:57;3.13;;;1.05;;
72899;SDS011;61043;52.036;5.566;2022-09-20T14:11:30;3.20;;;1.00;;
72899;SDS011;61043;52.036;5.566;2022-09-20T14:13:59;6.75;;;1.30;;
72899;SDS011;61043;52.036;5.566;2022-09-20T14:16:28;3.17;;;1.20;;
72899;SDS011;61043;52.036;5.566;2022-09-20T14:18:59;6.63;;;1.25;;
72899;SDS011;61043;52.036;5.566;2022-09-20T14:21:30;6.35;;;1.20;;
72899;SDS011;61043;52.036;5.566;2022-09-20T14:23:59;3.77;;;1.10;;
72899;SDS011;61043;52.036;5.566;2022-09-20T14:26:34;4.95;;;1.40;;
72899;SDS011;61043;52.036;5.566;2022-09-20T14:32:54;7.35;;;1.10;;
72899;SDS011;61043;52.036;5.566;2022-09-20T14:35:05;7.45;;;1.48;;
72899;SDS011;61043;52.036;5.566;2022-09-20T14:37:45;5.47;;;1.40;;
72899;SDS011;61043;52.036;5.566;2022-09-20T14:40:25;6.75;;;1.23;;
72899;SDS011;61043;52.036;5.566;2022-09-20T14:43:02;4.07;;;1.17;;
72899;SDS011;61043;52.036;5.566;2022-09-20T14:45:31;6.13;;;1.20;;
72899;SDS011;61043;52.036;5.566;2022-09-20T14:55:54;4.35;;;1.20;;
72899;SDS011;61043;52.036;5.566;2022-09-20T14:58:29;7.85;;;1.73;;
72899;SDS011;61043;52.036;5.566;2022-09-20T15:01:01;4.30;;;1.42;;
72899;SDS011;61043;52.036;5.566;2022-09-20T15:03:33;6.15;;;1.10;;
72899;SDS011;61043;52.036;5.566;2022-09-20T15:06:12;7.97;;;1.58;;
72899;SDS011;61043;52.036;5.566;2022-09-20T15:08:39;7.90;;;1.25;;
72899;SDS011;61043;52.036;5.566;2022-09-20T15:11:14;7.85;;;1.52;;
72899;SDS011;61043;52.036;5.566;2022-09-20T15:13:44;5.30;;;1.40;;
72899;SDS011;61043;52.036;5.566;2022-09-20T15:16:11;5.15;;;1.30;;
72899;SDS011;61043;52.036;5.566;2022-09-20T15:18:46;6.82;;;1.58;;
72899;SDS011;61043;52.036;5.566;2022-09-20T15:21:13;5.85;;;1.30;;
72899;SDS011;61043;52.036;5.566;2022-09-20T15:23:39;6.90;;;1.15;;
72899;SDS011;61043;52.036;5.566;2022-09-20T15:26:06;3.65;;;1.30;;
72899;SDS011;61043;52.036;5.566;2022-09-20T15:28:40;5.05;;;1.30;;
72899;SDS011;61043;52.036;5.566;2022-09-20T15:31:06;6.30;;;1.60;;
72899;SDS011;61043;52.036;5.566;2022-09-20T15:33:34;5.47;;;1.67;;
72899;SDS011;61043;52.036;5.566;2022-09-20T15:36:01;5.82;;;1.73;;
72899;SDS011;61043;52.036;5.566;2022-09-20T15:38:28;4.43;;;1.33;;
72899;SDS011;61043;52.036;5.566;2022-09-20T15:40:55;3.13;;;0.98;;
72899;SDS011;61043;52.036;5.566;2022-09-20T15:43:25;8.38;;;1.50;;
72899;SDS011;61043;52.036;5.566;2022-09-20T15:45:53;4.55;;;1.20;;
72899;SDS011;61043;52.036;5.566;2022-09-20T15:48:23;9.15;;;1.38;;
72899;SDS011;61043;52.036;5.566;2022-09-20T15:53:42;5.95;;;1.80;;
72899;SDS011;61043;52.036;5.566;2022-09-20T15:56:20;6.10;;;1.52;;
72899;SDS011;61043;52.036;5.566;2022-09-20T15:58:49;3.50;;;1.33;;
72899;SDS011;61043;52.036;5.566;2022-09-20T16:01:17;4.55;;;1.10;;
72899;SDS011;61043;52.036;5.566;2022-09-20T16:03:45;4.72;;;1.67;;
72899;SDS011;61043;52.036;5.566;2022-09-20T16:06:12;4.43;;;1.33;;
72899;SDS011;61043;52.036;5.566;2022-09-20T16:08:39;4.25;;;1.13;;
72899;SDS011;61043;52.036;5.566;2022-09-20T16:11:08;7.22;;;1.30;;
72899;SDS011;61043;52.036;5.566;2022-09-20T16:13:38;3.80;;;1.10;;
72899;SDS011;61043;52.036;5.566;2022-09-20T16:16:05;4.43;;;1.30;;
72899;SDS011;61043;52.036;5.566;2022-09-20T16:18:34;4.35;;;1.20;;
72899;SDS011;61043;52.036;5.566;2022-09-20T16:21:20;5.35;;;1.48;;
72899;SDS011;61043;52.036;5.566;2022-09-20T16:23:49;6.68;;;1.50;;
72899;SDS011;61043;52.036;5.566;2022-09-20T16:26:17;4.28;;;1.20;;
72899;SDS011;61043;52.036;5.566;2022-09-20T16:28:46;5.10;;;1.10;;
72899;SDS011;61043;52.036;5.566;2022-09-20T16:34:00;6.00;;;1.45;;
72899;SDS011;61043;52.036;5.566;2022-09-20T16:36:29;4.07;;;1.35;;
72899;SDS011;61043;52.036;5.566;2022-09-20T16:38:56;4.88;;;1.10;;
72899;SDS011;61043;52.036;5.566;2022-09-20T16:41:24;8.25;;;1.40;;
72899;SDS011;61043;52.036;5.566;2022-09-20T16:43:52;3.42;;;1.10;;
72899;SDS011;61043;52.036;5.566;2022-09-20T16:46:22;4.05;;;1.20;;
72899;SDS011;61043;52.036;5.566;2022-09-20T16:48:53;3.30;;;1.27;;
72899;SDS011;61043;52.036;5.566;2022-09-20T16:51:21;5.53;;;1.50;;
72899;SDS011;61043;52.036;5.566;2022-09-20T16:53:52;6.53;;;1.30;;
72899;SDS011;61043;52.036;5.566;2022-09-20T16:56:21;5.60;;;1.23;;
72899;SDS011;61043;52.036;5.566;2022-09-20T16:58:49;6.00;;;1.38;;
72899;SDS011;61043;52.036;5.566;2022-09-20T17:01:16;5.72;;;1.33;;
72899;SDS011;61043;52.036;5.566;2022-09-20T17:03:46;3.78;;;1.17;;
72899;SDS011;61043;52.036;5.566;2022-09-20T17:06:14;6.10;;;1.40;;
72899;SDS011;61043;52.036;5.566;2022-09-20T17:08:42;5.95;;;1.20;;
72899;SDS011;61043;52.036;5.566;2022-09-20T17:11:14;7.03;;;1.30;;
72899;SDS011;61043;52.036;5.566;2022-09-20T17:13:43;10.80;;;2.50;;
72899;SDS011;61043;52.036;5.566;2022-09-20T17:16:11;6.57;;;3.60;;
72899;SDS011;61043;52.036;5.566;2022-09-20T17:18:39;5.30;;;2.80;;
72899;SDS011;61043;52.036;5.566;2022-09-20T17:21:13;7.25;;;2.10;;
72899;SDS011;61043;52.036;5.566;2022-09-20T17:23:42;4.18;;;1.60;;
72899;SDS011;61043;52.036;5.566;2022-09-20T17:26:22;5.03;;;1.70;;
72899;SDS011;61043;52.036;5.566;2022-09-20T17:28:52;6.43;;;1.40;;
72899;SDS011;61043;52.036;5.566;2022-09-20T17:31:25;8.40;;;1.58;;
72899;SDS011;61043;52.036;5.566;2022-09-20T17:33:57;3.72;;;1.25;;
72899;SDS011;61043;52.036;5.566;2022-09-20T17:36:30;5.13;;;1.48;;
72899;SDS011;61043;52.036;5.566;2022-09-20T17:38:59;8.13;;;1.60;;
72899;SDS011;61043;52.036;5.566;2022-09-20T17:41:33;5.47;;;1.40;;
72899;SDS011;61043;52.036;5.566;2022-09-20T17:44:04;3.67;;;1.38;;
72899;SDS011;61043;52.036;5.566;2022-09-20T17:46:38;4.60;;;1.30;;
72899;SDS011;61043;52.036;5.566;2022-09-20T17:49:19;4.60;;;1.48;;
72899;SDS011;61043;52.036;5.566;2022-09-20T17:51:47;1.88;;;1.10;;
72899;SDS011;61043;52.036;5.566;2022-09-20T17:54:19;4.13;;;1.35;;
72899;SDS011;61043;52.036;5.566;2022-09-20T17:56:47;5.55;;;1.40;;
72899;SDS011;61043;52.036;5.566;2022-09-20T17:59:15;3.58;;;1.30;;
72899;SDS011;61043;52.036;5.566;2022-09-20T18:01:45;3.05;;;1.30;;
72899;SDS011;61043;52.036;5.566;2022-09-20T18:04:14;3.78;;;1.33;;
72899;SDS011;61043;52.036;5.566;2022-09-20T18:06:44;3.08;;;1.40;;
72899;SDS011;61043;52.036;5.566;2022-09-20T18:09:13;3.67;;;1.33;;
72899;SDS011;61043;52.036;5.566;2022-09-20T18:11:45;5.82;;;1.50;;
72899;SDS011;61043;52.036;5.566;2022-09-20T18:14:17;4.72;;;1.40;;
72899;SDS011;61043;52.036;5.566;2022-09-20T18:16:45;5.25;;;1.52;;
72899;SDS011;61043;52.036;5.566;2022-09-20T18:19:12;7.93;;;2.03;;
72899;SDS011;61043;52.036;5.566;2022-09-20T18:21:42;4.25;;;1.42;;
72899;SDS011;61043;52.036;5.566;2022-09-20T18:24:09;3.67;;;1.70;;
72899;SDS011;61043;52.036;5.566;2022-09-20T18:26:39;5.47;;;1.67;;
72899;SDS011;61043;52.036;5.566;2022-09-20T18:29:06;4.63;;;1.70;;
72899;SDS011;61043;52.036;5.566;2022-09-20T18:31:40;4.78;;;1.48;;
72899;SDS011;61043;52.036;5.566;2022-09-20T18:34:21;5.18;;;1.90;;
72899;SDS011;61043;52.036;5.566;2022-09-20T18:36:50;5.20;;;1.67;;
72899;SDS011;61043;52.036;5.566;2022-09-20T18:39:19;5.85;;;2.00;;
72899;SDS011;61043;52.036;5.566;2022-09-20T18:41:50;5.15;;;1.88;;
72899;SDS011;61043;52.036;5.566;2022-09-20T18:44:18;6.25;;;2.20;;
72899;SDS011;61043;52.036;5.566;2022-09-20T18:46:46;5.18;;;1.75;;
72899;SDS011;61043;52.036;5.566;2022-09-20T18:49:16;5.15;;;1.70;;
72899;SDS011;61043;52.036;5.566;2022-09-20T18:51:43;3.45;;;1.58;;
72899;SDS011;61043;52.036;5.566;2022-09-20T18:56:40;9.65;;;4.55;;
72899;SDS011;61043;52.036;5.566;2022-09-20T18:59:13;7.22;;;2.00;;
72899;SDS011;61043;52.036;5.566;2022-09-20T19:04:46;5.93;;;1.98;;
72899;SDS011;61043;52.036;5.566;2022-09-20T19:12:48;6.28;;;2.10;;
72899;SDS011;61043;52.036;5.566;2022-09-20T19:18:24;7.22;;;2.00;;
72899;SDS011;61043;52.036;5.566;2022-09-20T19:21:09;6.50;;;2.10;;
72899;SDS011;61043;52.036;5.566;2022-09-20T19:26:53;7.28;;;2.30;;
72899;SDS011;61043;52.036;5.566;2022-09-20T19:29:21;5.95;;;2.13;;
72899;SDS011;61043;52.036;5.566;2022-09-20T19:31:53;12.30;;;3.13;;
72899;SDS011;61043;52.036;5.566;2022-09-20T19:34:23;9.90;;;2.70;;
72899;SDS011;61043;52.036;5.566;2022-09-20T19:39:48;6.32;;;2.40;;
72899;SDS011;61043;52.036;5.566;2022-09-20T19:43:04;6.43;;;2.60;;
72899;SDS011;61043;52.036;5.566;2022-09-20T19:48:37;14.50;;;4.10;;
72899;SDS011;61043;52.036;5.566;2022-09-20T19:51:09;9.85;;;3.22;;
72899;SDS011;61043;52.036;5.566;2022-09-20T19:53:37;7.05;;;3.13;;
72899;SDS011;61043;52.036;5.566;2022-09-20T19:58:40;7.53;;;3.10;;
72899;SDS011;61043;52.036;5.566;2022-09-20T20:01:08;7.85;;;3.60;;
72899;SDS011;61043;52.036;5.566;2022-09-20T20:03:35;7.07;;;3.15;;
72899;SDS011;61043;52.036;5.566;2022-09-20T20:06:03;7.07;;;3.85;;
72899;SDS011;61043;52.036;5.566;2022-09-20T20:08:45;10.18;;;3.78;;
72899;SDS011;61043;52.036;5.566;2022-09-20T20:14:18;9.57;;;4.47;;
72899;SDS011;61043;52.036;5.566;2022-09-20T20:17:00;9.20;;;4.80;;
72899;SDS011;61043;52.036;5.566;2022-09-20T20:19:59;9.27;;;4.65;;
72899;SDS011;61043;52.036;5.566;2022-09-20T20:24:57;12.15;;;5.22;;
72899;SDS011;61043;52.036;5.566;2022-09-20T20:27:24;10.15;;;5.38;;
72899;SDS011;61043;52.036;5.566;2022-09-20T20:29:54;10.75;;;5.05;;
72899;SDS011;61043;52.036;5.566;2022-09-20T20:32:20;11.18;;;5.28;;
72899;SDS011;61043;52.036;5.566;2022-09-20T20:34:47;10.23;;;5.20;;
72899;SDS011;61043;52.036;5.566;2022-09-20T20:37:14;10.55;;;6.22;;
72899;SDS011;61043;52.036;5.566;2022-09-20T20:39:41;13.30;;;6.63;;
72899;SDS011;61043;52.036;5.566;2022-09-20T20:42:07;13.93;;;6.38;;
72899;SDS011;61043;52.036;5.566;2022-09-20T20:44:38;11.07;;;6.25;;
72899;SDS011;61043;52.036;5.566;2022-09-20T20:47:05;14.45;;;6.82;;
72899;SDS011;61043;52.036;5.566;2022-09-20T20:49:31;15.55;;;7.47;;
72899;SDS011;61043;52.036;5.566;2022-09-20T20:51:58;13.45;;;6.85;;
72899;SDS011;61043;52.036;5.566;2022-09-20T20:54:29;16.23;;;7.93;;
72899;SDS011;61043;52.036;5.566;2022-09-20T20:56:57;14.43;;;7.65;;
72899;SDS011;61043;52.036;5.566;2022-09-20T20:59:24;15.07;;;7.85;;
72899;SDS011;61043;52.036;5.566;2022-09-20T21:01:51;15.05;;;7.22;;
72899;SDS011;61043;52.036;5.566;2022-09-20T21:04:18;14.25;;;7.93;;
72899;SDS011;61043;52.036;5.566;2022-09-20T21:06:45;11.15;;;6.72;;
72899;SDS011;61043;52.036;5.566;2022-09-20T21:09:11;9.60;;;6.03;;
72899;SDS011;61043;52.036;5.566;2022-09-20T21:11:38;13.95;;;5.93;;
72899;SDS011;61043;52.036;5.566;2022-09-20T21:14:10;9.65;;;5.45;;
72899;SDS011;61043;52.036;5.566;2022-09-20T21:16:38;9.68;;;5.50;;
72899;SDS011;61043;52.036;5.566;2022-09-20T21:19:11;9.93;;;4.95;;